Leavittsburg, Ohio
Current Conditions -  °F | °C
As of 12:51 PM on Wednesday 28 Jan 2015 (Local Time) from KYNG Reporting Station
Few Clouds Few Clouds  
Wind Chill: 20°   Ceiling: Unl
Heat Index: 20°   Visibility: 10mi
Dew Point:   Wind: 0mph
Humidity: 60%   Direction: NA
Pressure: 30.3"   Gusts: NA
Location:  41.25°N, 80.88°W
Report Text: KYNG 281751Z 00000KT 10SM FEW250 M07/M13 A3030 RMK AO2 SLP286 4/008 933011 T10671133 11056 21183 58003
Loading
Personal Weather Stations






























Interactive Weather Map New forecast layout! Learn more

10-Day Weather Forecast

Advertisements
Track Severe Weather on mobile